Alice, North Dakota
Current Conditions -  °F | °C
As of 10:15 PM on Friday 31 Oct 2014 (Local Time) from KBAC Reporting Station
Unknown Precip Unknown Precip  
Wind Chill: 17°   Ceiling: Unl
Heat Index: 28°   Visibility: 10mi
Dew Point: 23°   Wind: 16mph
Humidity: 80%   Direction: 170°S
Pressure: 30.29"   Gusts: NA
Location:  46.7681°N, 97.6777°W
Report Text: KBAC 010315Z AUTO 17014KT 10SM UP CLR M02/M05 A3029 RMK AO2
Loading
Personal Weather Stations






























Interactive Weather Map
Tropical Storm Tracking
New forecast layout! Learn more

10-Day Weather Forecast

Advertisements
Track Severe Weather on mobile